sensor_id;sensor_type;location;lat;lon;timestamp;P1;durP1;ratioP1;P2;durP2;ratioP2
21527;SDS011;10925;49.102;-0.370;2022-08-21T00:01:36;19.48;;;4.85;;
21527;SDS011;10925;49.102;-0.370;2022-08-21T00:04:07;24.17;;;4.85;;
21527;SDS011;10925;49.102;-0.370;2022-08-21T00:06:35;15.35;;;4.55;;
21527;SDS011;10925;49.102;-0.370;2022-08-21T00:09:02;12.45;;;3.80;;
21527;SDS011;10925;49.102;-0.370;2022-08-21T00:11:28;19.08;;;4.68;;
21527;SDS011;10925;49.102;-0.370;2022-08-21T00:13:55;17.92;;;4.15;;
21527;SDS011;10925;49.102;-0.370;2022-08-21T00:16:22;19.88;;;4.43;;
21527;SDS011;10925;49.102;-0.370;2022-08-21T00:18:49;16.70;;;4.53;;
21527;SDS011;10925;49.102;-0.370;2022-08-21T00:21:16;18.83;;;4.70;;
21527;SDS011;10925;49.102;-0.370;2022-08-21T00:23:43;9.88;;;3.92;;
21527;SDS011;10925;49.102;-0.370;2022-08-21T00:26:09;13.60;;;4.30;;
21527;SDS011;10925;49.102;-0.370;2022-08-21T00:28:36;17.40;;;4.25;;
21527;SDS011;10925;49.102;-0.370;2022-08-21T00:31:03;17.70;;;4.55;;
21527;SDS011;10925;49.102;-0.370;2022-08-21T00:33:29;18.15;;;4.32;;
21527;SDS011;10925;49.102;-0.370;2022-08-21T00:35:56;18.17;;;4.78;;
21527;SDS011;10925;49.102;-0.370;2022-08-21T00:38:22;13.65;;;4.35;;
21527;SDS011;10925;49.102;-0.370;2022-08-21T00:40:50;15.50;;;3.72;;
21527;SDS011;10925;49.102;-0.370;2022-08-21T00:43:19;16.50;;;5.22;;
21527;SDS011;10925;49.102;-0.370;2022-08-21T00:45:47;16.20;;;3.83;;
21527;SDS011;10925;49.102;-0.370;2022-08-21T00:48:14;15.93;;;4.32;;
21527;SDS011;10925;49.102;-0.370;2022-08-21T00:50:46;17.98;;;5.00;;
21527;SDS011;10925;49.102;-0.370;2022-08-21T00:53:15;24.13;;;4.97;;
21527;SDS011;10925;49.102;-0.370;2022-08-21T00:55:41;22.27;;;4.80;;
21527;SDS011;10925;49.102;-0.370;2022-08-21T00:58:09;13.85;;;4.10;;
21527;SDS011;10925;49.102;-0.370;2022-08-21T01:00:38;19.65;;;5.03;;
21527;SDS011;10925;49.102;-0.370;2022-08-21T01:03:06;19.10;;;5.13;;
21527;SDS011;10925;49.102;-0.370;2022-08-21T01:05:34;15.00;;;4.35;;
21527;SDS011;10925;49.102;-0.370;2022-08-21T01:08:01;18.98;;;5.43;;
21527;SDS011;10925;49.102;-0.370;2022-08-21T01:10:28;18.02;;;4.70;;
21527;SDS011;10925;49.102;-0.370;2022-08-21T01:12:55;23.05;;;5.53;;
21527;SDS011;10925;49.102;-0.370;2022-08-21T01:15:24;16.98;;;4.57;;
21527;SDS011;10925;49.102;-0.370;2022-08-21T01:17:52;23.75;;;5.03;;
21527;SDS011;10925;49.102;-0.370;2022-08-21T01:20:20;23.77;;;5.03;;
21527;SDS011;10925;49.102;-0.370;2022-08-21T01:22:45;21.50;;;5.68;;
21527;SDS011;10925;49.102;-0.370;2022-08-21T01:25:12;22.75;;;5.15;;
21527;SDS011;10925;49.102;-0.370;2022-08-21T01:27:39;18.05;;;5.13;;
21527;SDS011;10925;49.102;-0.370;2022-08-21T01:30:16;17.42;;;4.35;;
21527;SDS011;10925;49.102;-0.370;2022-08-21T01:32:45;24.42;;;5.75;;
21527;SDS011;10925;49.102;-0.370;2022-08-21T01:35:12;20.80;;;4.95;;
21527;SDS011;10925;49.102;-0.370;2022-08-21T01:37:39;18.83;;;5.30;;
21527;SDS011;10925;49.102;-0.370;2022-08-21T01:40:06;29.35;;;5.72;;
21527;SDS011;10925;49.102;-0.370;2022-08-21T01:42:34;21.75;;;4.90;;
21527;SDS011;10925;49.102;-0.370;2022-08-21T01:45:01;17.88;;;4.88;;
21527;SDS011;10925;49.102;-0.370;2022-08-21T01:47:27;23.38;;;5.05;;
21527;SDS011;10925;49.102;-0.370;2022-08-21T01:49:53;18.08;;;5.38;;
21527;SDS011;10925;49.102;-0.370;2022-08-21T01:52:20;16.02;;;4.60;;
21527;SDS011;10925;49.102;-0.370;2022-08-21T01:54:46;20.08;;;5.20;;
21527;SDS011;10925;49.102;-0.370;2022-08-21T01:57:20;20.90;;;6.13;;
21527;SDS011;10925;49.102;-0.370;2022-08-21T01:59:48;19.33;;;6.53;;
21527;SDS011;10925;49.102;-0.370;2022-08-21T02:02:14;16.13;;;6.22;;
21527;SDS011;10925;49.102;-0.370;2022-08-21T02:04:40;26.60;;;6.13;;
21527;SDS011;10925;49.102;-0.370;2022-08-21T02:07:10;15.98;;;5.70;;
21527;SDS011;10925;49.102;-0.370;2022-08-21T02:09:38;19.45;;;5.68;;
21527;SDS011;10925;49.102;-0.370;2022-08-21T02:12:05;20.35;;;5.05;;
21527;SDS011;10925;49.102;-0.370;2022-08-21T02:14:32;16.45;;;5.57;;
21527;SDS011;10925;49.102;-0.370;2022-08-21T02:16:59;26.65;;;5.55;;
21527;SDS011;10925;49.102;-0.370;2022-08-21T02:19:34;24.50;;;5.55;;
21527;SDS011;10925;49.102;-0.370;2022-08-21T02:21:59;20.52;;;5.40;;
21527;SDS011;10925;49.102;-0.370;2022-08-21T02:24:25;19.63;;;4.88;;
21527;SDS011;10925;49.102;-0.370;2022-08-21T02:26:50;14.50;;;4.63;;
21527;SDS011;10925;49.102;-0.370;2022-08-21T02:31:42;19.37;;;4.93;;
21527;SDS011;10925;49.102;-0.370;2022-08-21T02:34:09;19.05;;;5.43;;
21527;SDS011;10925;49.102;-0.370;2022-08-21T02:36:36;15.73;;;5.10;;
21527;SDS011;10925;49.102;-0.370;2022-08-21T02:39:03;24.88;;;5.28;;
21527;SDS011;10925;49.102;-0.370;2022-08-21T02:41:30;24.25;;;5.68;;
21527;SDS011;10925;49.102;-0.370;2022-08-21T02:43:58;18.25;;;5.22;;
21527;SDS011;10925;49.102;-0.370;2022-08-21T02:46:24;18.75;;;5.47;;
21527;SDS011;10925;49.102;-0.370;2022-08-21T02:48:51;13.00;;;4.88;;
21527;SDS011;10925;49.102;-0.370;2022-08-21T02:51:18;19.73;;;4.82;;
21527;SDS011;10925;49.102;-0.370;2022-08-21T02:53:46;16.85;;;5.47;;
21527;SDS011;10925;49.102;-0.370;2022-08-21T02:56:14;25.33;;;7.15;;
21527;SDS011;10925;49.102;-0.370;2022-08-21T02:58:42;13.35;;;6.55;;
21527;SDS011;10925;49.102;-0.370;2022-08-21T03:01:10;14.38;;;4.45;;
21527;SDS011;10925;49.102;-0.370;2022-08-21T03:03:39;18.98;;;4.90;;
21527;SDS011;10925;49.102;-0.370;2022-08-21T03:06:07;15.40;;;5.10;;
21527;SDS011;10925;49.102;-0.370;2022-08-21T03:08:35;18.63;;;4.90;;
21527;SDS011;10925;49.102;-0.370;2022-08-21T03:11:02;19.60;;;4.80;;
21527;SDS011;10925;49.102;-0.370;2022-08-21T03:13:28;23.27;;;5.15;;
21527;SDS011;10925;49.102;-0.370;2022-08-21T03:15:55;17.33;;;5.60;;
21527;SDS011;10925;49.102;-0.370;2022-08-21T03:18:23;21.98;;;5.40;;
21527;SDS011;10925;49.102;-0.370;2022-08-21T03:20:49;21.35;;;5.55;;
21527;SDS011;10925;49.102;-0.370;2022-08-21T03:23:16;15.27;;;5.22;;
21527;SDS011;10925;49.102;-0.370;2022-08-21T03:25:45;20.73;;;5.40;;
21527;SDS011;10925;49.102;-0.370;2022-08-21T03:28:14;22.55;;;5.78;;
21527;SDS011;10925;49.102;-0.370;2022-08-21T03:30:42;16.40;;;5.30;;
21527;SDS011;10925;49.102;-0.370;2022-08-21T03:33:12;19.42;;;6.15;;
21527;SDS011;10925;49.102;-0.370;2022-08-21T03:35:42;24.83;;;5.47;;
21527;SDS011;10925;49.102;-0.370;2022-08-21T03:38:09;18.23;;;5.20;;
21527;SDS011;10925;49.102;-0.370;2022-08-21T03:40:36;22.67;;;5.93;;
21527;SDS011;10925;49.102;-0.370;2022-08-21T03:43:01;26.13;;;5.90;;
21527;SDS011;10925;49.102;-0.370;2022-08-21T03:45:27;20.65;;;5.47;;
21527;SDS011;10925;49.102;-0.370;2022-08-21T03:47:58;15.55;;;4.88;;
21527;SDS011;10925;49.102;-0.370;2022-08-21T03:50:24;23.55;;;5.72;;
21527;SDS011;10925;49.102;-0.370;2022-08-21T03:52:54;21.55;;;6.28;;
21527;SDS011;10925;49.102;-0.370;2022-08-21T03:55:22;16.20;;;5.78;;
21527;SDS011;10925;49.102;-0.370;2022-08-21T03:57:49;26.13;;;5.53;;
21527;SDS011;10925;49.102;-0.370;2022-08-21T04:00:19;17.20;;;5.78;;
21527;SDS011;10925;49.102;-0.370;2022-08-21T04:02:46;26.23;;;5.95;;
21527;SDS011;10925;49.102;-0.370;2022-08-21T04:05:12;22.55;;;5.93;;
21527;SDS011;10925;49.102;-0.370;2022-08-21T04:07:37;21.38;;;6.45;;
21527;SDS011;10925;49.102;-0.370;2022-08-21T04:10:04;25.33;;;6.15;;
21527;SDS011;10925;49.102;-0.370;2022-08-21T04:12:30;19.73;;;5.70;;
21527;SDS011;10925;49.102;-0.370;2022-08-21T04:14:56;20.88;;;5.55;;
21527;SDS011;10925;49.102;-0.370;2022-08-21T04:17:21;21.10;;;5.65;;
21527;SDS011;10925;49.102;-0.370;2022-08-21T04:19:47;19.48;;;5.55;;
21527;SDS011;10925;49.102;-0.370;2022-08-21T04:22:12;21.40;;;5.95;;
21527;SDS011;10925;49.102;-0.370;2022-08-21T04:24:38;24.08;;;6.05;;
21527;SDS011;10925;49.102;-0.370;2022-08-21T04:27:03;26.77;;;5.68;;
21527;SDS011;10925;49.102;-0.370;2022-08-21T04:29:30;21.55;;;6.53;;
21527;SDS011;10925;49.102;-0.370;2022-08-21T04:31:57;19.20;;;5.45;;
21527;SDS011;10925;49.102;-0.370;2022-08-21T04:34:23;18.98;;;5.35;;
21527;SDS011;10925;49.102;-0.370;2022-08-21T04:36:49;20.80;;;5.47;;
21527;SDS011;10925;49.102;-0.370;2022-08-21T04:39:16;21.77;;;5.40;;
21527;SDS011;10925;49.102;-0.370;2022-08-21T04:41:43;20.05;;;6.10;;
21527;SDS011;10925;49.102;-0.370;2022-08-21T04:44:10;18.25;;;5.57;;
21527;SDS011;10925;49.102;-0.370;2022-08-21T04:46:36;20.52;;;5.38;;
21527;SDS011;10925;49.102;-0.370;2022-08-21T04:49:04;22.13;;;5.38;;
21527;SDS011;10925;49.102;-0.370;2022-08-21T04:51:32;16.88;;;5.18;;
21527;SDS011;10925;49.102;-0.370;2022-08-21T04:58:55;19.00;;;5.68;;
21527;SDS011;10925;49.102;-0.370;2022-08-21T05:01:25;15.93;;;5.85;;
21527;SDS011;10925;49.102;-0.370;2022-08-21T05:03:54;16.73;;;5.05;;
21527;SDS011;10925;49.102;-0.370;2022-08-21T05:06:22;19.48;;;5.40;;
21527;SDS011;10925;49.102;-0.370;2022-08-21T05:08:50;17.15;;;5.38;;
21527;SDS011;10925;49.102;-0.370;2022-08-21T05:11:27;17.70;;;4.72;;
21527;SDS011;10925;49.102;-0.370;2022-08-21T05:13:55;24.98;;;5.45;;
21527;SDS011;10925;49.102;-0.370;2022-08-21T05:16:22;19.23;;;5.00;;
21527;SDS011;10925;49.102;-0.370;2022-08-21T05:19:03;23.23;;;5.88;;
21527;SDS011;10925;49.102;-0.370;2022-08-21T05:21:30;18.65;;;4.68;;
21527;SDS011;10925;49.102;-0.370;2022-08-21T05:23:59;15.25;;;4.50;;
21527;SDS011;10925;49.102;-0.370;2022-08-21T05:26:25;17.38;;;5.20;;
21527;SDS011;10925;49.102;-0.370;2022-08-21T05:28:51;17.95;;;5.18;;
21527;SDS011;10925;49.102;-0.370;2022-08-21T05:31:18;24.50;;;4.93;;
21527;SDS011;10925;49.102;-0.370;2022-08-21T05:33:45;24.27;;;5.35;;
21527;SDS011;10925;49.102;-0.370;2022-08-21T05:36:11;16.67;;;4.78;;
21527;SDS011;10925;49.102;-0.370;2022-08-21T05:38:38;16.70;;;4.95;;
21527;SDS011;10925;49.102;-0.370;2022-08-21T05:41:05;17.13;;;4.68;;
21527;SDS011;10925;49.102;-0.370;2022-08-21T05:43:32;18.42;;;4.88;;
21527;SDS011;10925;49.102;-0.370;2022-08-21T05:46:03;19.67;;;5.20;;
21527;SDS011;10925;49.102;-0.370;2022-08-21T05:48:30;14.40;;;4.90;;
21527;SDS011;10925;49.102;-0.370;2022-08-21T05:50:57;18.35;;;5.35;;
21527;SDS011;10925;49.102;-0.370;2022-08-21T05:53:24;13.80;;;4.60;;
21527;SDS011;10925;49.102;-0.370;2022-08-21T05:55:51;16.30;;;4.70;;
21527;SDS011;10925;49.102;-0.370;2022-08-21T05:58:19;14.23;;;4.57;;
21527;SDS011;10925;49.102;-0.370;2022-08-21T06:00:46;17.90;;;5.10;;
21527;SDS011;10925;49.102;-0.370;2022-08-21T06:03:16;12.90;;;4.53;;
21527;SDS011;10925;49.102;-0.370;2022-08-21T06:05:42;17.75;;;5.03;;
21527;SDS011;10925;49.102;-0.370;2022-08-21T06:08:08;18.35;;;4.50;;
21527;SDS011;10925;49.102;-0.370;2022-08-21T06:10:35;15.35;;;4.30;;
21527;SDS011;10925;49.102;-0.370;2022-08-21T06:13:00;14.75;;;4.07;;
21527;SDS011;10925;49.102;-0.370;2022-08-21T06:15:28;16.48;;;5.07;;
21527;SDS011;10925;49.102;-0.370;2022-08-21T06:17:54;23.15;;;4.75;;
21527;SDS011;10925;49.102;-0.370;2022-08-21T06:20:20;13.55;;;4.07;;
21527;SDS011;10925;49.102;-0.370;2022-08-21T06:22:46;18.92;;;4.43;;
21527;SDS011;10925;49.102;-0.370;2022-08-21T06:25:12;19.40;;;5.03;;
21527;SDS011;10925;49.102;-0.370;2022-08-21T06:27:39;15.93;;;4.70;;
21527;SDS011;10925;49.102;-0.370;2022-08-21T06:30:06;15.77;;;4.70;;
21527;SDS011;10925;49.102;-0.370;2022-08-21T06:32:34;18.25;;;4.43;;
21527;SDS011;10925;49.102;-0.370;2022-08-21T06:35:01;20.35;;;4.90;;
21527;SDS011;10925;49.102;-0.370;2022-08-21T06:37:27;23.58;;;4.72;;
21527;SDS011;10925;49.102;-0.370;2022-08-21T06:39:54;13.65;;;4.00;;
21527;SDS011;10925;49.102;-0.370;2022-08-21T06:42:21;16.42;;;4.10;;
21527;SDS011;10925;49.102;-0.370;2022-08-21T06:44:53;18.10;;;3.65;;
21527;SDS011;10925;49.102;-0.370;2022-08-21T06:47:20;13.88;;;3.55;;
21527;SDS011;10925;49.102;-0.370;2022-08-21T06:49:45;17.27;;;3.85;;
21527;SDS011;10925;49.102;-0.370;2022-08-21T06:52:13;17.80;;;3.70;;
21527;SDS011;10925;49.102;-0.370;2022-08-21T06:54:40;16.20;;;3.72;;
21527;SDS011;10925;49.102;-0.370;2022-08-21T06:57:07;13.80;;;3.88;;
21527;SDS011;10925;49.102;-0.370;2022-08-21T06:59:33;8.15;;;3.15;;
21527;SDS011;10925;49.102;-0.370;2022-08-21T07:02:00;16.48;;;3.58;;
21527;SDS011;10925;49.102;-0.370;2022-08-21T07:04:26;11.50;;;4.18;;
21527;SDS011;10925;49.102;-0.370;2022-08-21T07:06:51;14.20;;;3.55;;
21527;SDS011;10925;49.102;-0.370;2022-08-21T07:09:18;19.52;;;4.22;;
21527;SDS011;10925;49.102;-0.370;2022-08-21T07:11:44;13.40;;;3.47;;
21527;SDS011;10925;49.102;-0.370;2022-08-21T07:14:13;16.13;;;3.80;;
21527;SDS011;10925;49.102;-0.370;2022-08-21T07:16:46;13.80;;;3.13;;
21527;SDS011;10925;49.102;-0.370;2022-08-21T07:19:11;16.10;;;3.40;;
21527;SDS011;10925;49.102;-0.370;2022-08-21T07:21:37;18.33;;;3.65;;
21527;SDS011;10925;49.102;-0.370;2022-08-21T07:24:03;11.02;;;3.00;;
21527;SDS011;10925;49.102;-0.370;2022-08-21T07:26:30;14.20;;;3.50;;
21527;SDS011;10925;49.102;-0.370;2022-08-21T07:28:57;14.70;;;3.42;;
21527;SDS011;10925;49.102;-0.370;2022-08-21T07:31:26;15.02;;;3.15;;
21527;SDS011;10925;49.102;-0.370;2022-08-21T07:33:52;20.00;;;3.47;;
21527;SDS011;10925;49.102;-0.370;2022-08-21T07:36:18;14.70;;;3.47;;
21527;SDS011;10925;49.102;-0.370;2022-08-21T07:38:45;12.68;;;3.38;;
21527;SDS011;10925;49.102;-0.370;2022-08-21T07:41:16;14.70;;;3.67;;
21527;SDS011;10925;49.102;-0.370;2022-08-21T07:43:43;13.82;;;3.20;;
21527;SDS011;10925;49.102;-0.370;2022-08-21T07:46:11;12.52;;;3.83;;
21527;SDS011;10925;49.102;-0.370;2022-08-21T07:48:38;14.23;;;3.47;;
21527;SDS011;10925;49.102;-0.370;2022-08-21T07:51:06;16.58;;;3.53;;
21527;SDS011;10925;49.102;-0.370;2022-08-21T07:53:32;14.23;;;3.50;;
21527;SDS011;10925;49.102;-0.370;2022-08-21T07:55:59;14.68;;;3.78;;
21527;SDS011;10925;49.102;-0.370;2022-08-21T07:58:26;15.55;;;3.55;;
21527;SDS011;10925;49.102;-0.370;2022-08-21T08:00:52;16.48;;;3.25;;
21527;SDS011;10925;49.102;-0.370;2022-08-21T08:03:19;13.55;;;3.60;;
21527;SDS011;10925;49.102;-0.370;2022-08-21T08:05:45;16.13;;;3.42;;
21527;SDS011;10925;49.102;-0.370;2022-08-21T08:08:11;16.15;;;3.83;;
21527;SDS011;10925;49.102;-0.370;2022-08-21T08:10:38;14.43;;;3.78;;
21527;SDS011;10925;49.102;-0.370;2022-08-21T08:13:04;19.45;;;3.78;;
21527;SDS011;10925;49.102;-0.370;2022-08-21T08:15:30;18.88;;;3.10;;
21527;SDS011;10925;49.102;-0.370;2022-08-21T08:18:03;17.45;;;3.30;;
21527;SDS011;10925;49.102;-0.370;2022-08-21T08:20:28;23.40;;;3.55;;
21527;SDS011;10925;49.102;-0.370;2022-08-21T08:22:54;10.25;;;3.15;;
21527;SDS011;10925;49.102;-0.370;2022-08-21T08:25:21;14.88;;;3.10;;
21527;SDS011;10925;49.102;-0.370;2022-08-21T08:27:49;23.65;;;3.38;;
21527;SDS011;10925;49.102;-0.370;2022-08-21T08:30:17;19.58;;;3.33;;
21527;SDS011;10925;49.102;-0.370;2022-08-21T08:32:44;16.55;;;3.30;;
21527;SDS011;10925;49.102;-0.370;2022-08-21T08:35:10;16.23;;;3.55;;
21527;SDS011;10925;49.102;-0.370;2022-08-21T08:37:39;17.10;;;3.28;;
21527;SDS011;10925;49.102;-0.370;2022-08-21T08:40:10;15.73;;;2.92;;
21527;SDS011;10925;49.102;-0.370;2022-08-21T08:42:38;20.50;;;3.65;;
21527;SDS011;10925;49.102;-0.370;2022-08-21T08:45:10;13.23;;;2.92;;
21527;SDS011;10925;49.102;-0.370;2022-08-21T08:48:00;16.05;;;3.55;;
21527;SDS011;10925;49.102;-0.370;2022-08-21T08:50:46;21.10;;;3.33;;
21527;SDS011;10925;49.102;-0.370;2022-08-21T08:53:15;18.20;;;3.00;;
21527;SDS011;10925;49.102;-0.370;2022-08-21T08:55:43;18.58;;;3.00;;
21527;SDS011;10925;49.102;-0.370;2022-08-21T08:58:16;23.35;;;3.40;;
21527;SDS011;10925;49.102;-0.370;2022-08-21T09:00:43;14.38;;;3.30;;
21527;SDS011;10925;49.102;-0.370;2022-08-21T09:03:10;13.15;;;2.63;;
21527;SDS011;10925;49.102;-0.370;2022-08-21T09:05:45;14.35;;;3.20;;
21527;SDS011;10925;49.102;-0.370;2022-08-21T09:18:08;13.05;;;2.75;;
21527;SDS011;10925;49.102;-0.370;2022-08-21T09:20:55;13.25;;;2.95;;
21527;SDS011;10925;49.102;-0.370;2022-08-21T09:25:55;18.40;;;3.58;;
21527;SDS011;10925;49.102;-0.370;2022-08-21T09:28:22;17.88;;;3.25;;
21527;SDS011;10925;49.102;-0.370;2022-08-21T09:30:49;17.38;;;3.03;;
21527;SDS011;10925;49.102;-0.370;2022-08-21T09:33:16;16.60;;;3.05;;
21527;SDS011;10925;49.102;-0.370;2022-08-21T09:35:54;14.05;;;2.88;;
21527;SDS011;10925;49.102;-0.370;2022-08-21T09:40:46;12.25;;;2.67;;
21527;SDS011;10925;49.102;-0.370;2022-08-21T09:45:40;19.15;;;2.78;;
21527;SDS011;10925;49.102;-0.370;2022-08-21T09:48:09;15.63;;;2.90;;
21527;SDS011;10925;49.102;-0.370;2022-08-21T09:50:35;13.77;;;2.85;;
21527;SDS011;10925;49.102;-0.370;2022-08-21T09:53:01;13.52;;;3.13;;
21527;SDS011;10925;49.102;-0.370;2022-08-21T09:55:32;12.27;;;2.55;;
21527;SDS011;10925;49.102;-0.370;2022-08-21T09:58:35;12.82;;;2.58;;
21527;SDS011;10925;49.102;-0.370;2022-08-21T10:01:01;19.98;;;3.63;;
21527;SDS011;10925;49.102;-0.370;2022-08-21T10:03:29;19.23;;;3.13;;
21527;SDS011;10925;49.102;-0.370;2022-08-21T10:06:00;14.75;;;2.85;;
21527;SDS011;10925;49.102;-0.370;2022-08-21T10:08:29;10.57;;;2.42;;
21527;SDS011;10925;49.102;-0.370;2022-08-21T10:10:57;14.13;;;2.88;;
21527;SDS011;10925;49.102;-0.370;2022-08-21T10:13:38;13.73;;;2.65;;
21527;SDS011;10925;49.102;-0.370;2022-08-21T10:18:44;10.43;;;2.60;;
21527;SDS011;10925;49.102;-0.370;2022-08-21T10:21:18;16.45;;;3.17;;
21527;SDS011;10925;49.102;-0.370;2022-08-21T10:29:38;10.85;;;2.70;;
21527;SDS011;10925;49.102;-0.370;2022-08-21T10:36:58;13.50;;;2.53;;
21527;SDS011;10925;49.102;-0.370;2022-08-21T10:42:16;12.38;;;2.83;;
21527;SDS011;10925;49.102;-0.370;2022-08-21T10:50:07;15.27;;;2.70;;
21527;SDS011;10925;49.102;-0.370;2022-08-21T10:55:11;9.77;;;2.70;;
21527;SDS011;10925;49.102;-0.370;2022-08-21T10:57:40;9.63;;;2.42;;
21527;SDS011;10925;49.102;-0.370;2022-08-21T11:00:10;9.85;;;2.72;;
21527;SDS011;10925;49.102;-0.370;2022-08-21T11:02:49;12.90;;;2.78;;
21527;SDS011;10925;49.102;-0.370;2022-08-21T11:05:25;9.98;;;2.67;;
21527;SDS011;10925;49.102;-0.370;2022-08-21T11:07:55;12.07;;;2.50;;
21527;SDS011;10925;49.102;-0.370;2022-08-21T11:10:31;14.38;;;2.83;;
21527;SDS011;10925;49.102;-0.370;2022-08-21T11:13:00;15.20;;;2.93;;
21527;SDS011;10925;49.102;-0.370;2022-08-21T11:20:43;7.70;;;2.20;;
21527;SDS011;10925;49.102;-0.370;2022-08-21T11:23:22;14.13;;;2.95;;
21527;SDS011;10925;49.102;-0.370;2022-08-21T11:26:02;13.18;;;2.65;;
21527;SDS011;10925;49.102;-0.370;2022-08-21T11:28:31;11.05;;;2.60;;
21527;SDS011;10925;49.102;-0.370;2022-08-21T11:43:48;8.70;;;2.17;;
21527;SDS011;10925;49.102;-0.370;2022-08-21T11:46:17;13.80;;;2.45;;
21527;SDS011;10925;49.102;-0.370;2022-08-21T11:51:11;10.18;;;2.20;;
21527;SDS011;10925;49.102;-0.370;2022-08-21T11:53:39;9.63;;;2.15;;
21527;SDS011;10925;49.102;-0.370;2022-08-21T11:56:20;9.95;;;2.25;;
21527;SDS011;10925;49.102;-0.370;2022-08-21T11:58:48;8.63;;;2.00;;
21527;SDS011;10925;49.102;-0.370;2022-08-21T12:01:25;10.48;;;2.20;;
21527;SDS011;10925;49.102;-0.370;2022-08-21T12:04:02;11.45;;;2.53;;
21527;SDS011;10925;49.102;-0.370;2022-08-21T12:06:34;10.10;;;2.03;;
21527;SDS011;10925;49.102;-0.370;2022-08-21T12:09:02;9.05;;;2.30;;
21527;SDS011;10925;49.102;-0.370;2022-08-21T12:11:28;8.15;;;2.15;;
21527;SDS011;10925;49.102;-0.370;2022-08-21T12:16:31;10.88;;;2.20;;
21527;SDS011;10925;49.102;-0.370;2022-08-21T12:19:07;7.05;;;2.08;;
21527;SDS011;10925;49.102;-0.370;2022-08-21T12:21:33;8.00;;;2.17;;
21527;SDS011;10925;49.102;-0.370;2022-08-21T12:26:51;8.05;;;2.28;;
21527;SDS011;10925;49.102;-0.370;2022-08-21T12:31:54;8.98;;;1.80;;
21527;SDS011;10925;49.102;-0.370;2022-08-21T12:34:20;8.57;;;2.08;;
21527;SDS011;10925;49.102;-0.370;2022-08-21T12:36:58;11.85;;;2.00;;
21527;SDS011;10925;49.102;-0.370;2022-08-21T12:39:26;10.63;;;2.35;;
21527;SDS011;10925;49.102;-0.370;2022-08-21T12:41:59;10.93;;;2.22;;
21527;SDS011;10925;49.102;-0.370;2022-08-21T12:47:06;11.13;;;1.80;;
21527;SDS011;10925;49.102;-0.370;2022-08-21T12:49:43;6.85;;;1.80;;
21527;SDS011;10925;49.102;-0.370;2022-08-21T12:52:20;13.13;;;1.80;;
21527;SDS011;10925;49.102;-0.370;2022-08-21T12:54:46;10.00;;;2.33;;
21527;SDS011;10925;49.102;-0.370;2022-08-21T12:57:22;13.00;;;2.40;;
21527;SDS011;10925;49.102;-0.370;2022-08-21T12:59:59;9.18;;;1.70;;
21527;SDS011;10925;49.102;-0.370;2022-08-21T13:02:27;9.68;;;2.28;;
21527;SDS011;10925;49.102;-0.370;2022-08-21T13:04:53;10.90;;;1.88;;
21527;SDS011;10925;49.102;-0.370;2022-08-21T13:07:31;9.38;;;2.05;;
21527;SDS011;10925;49.102;-0.370;2022-08-21T13:10:00;6.25;;;1.52;;
21527;SDS011;10925;49.102;-0.370;2022-08-21T13:12:26;7.03;;;1.73;;
21527;SDS011;10925;49.102;-0.370;2022-08-21T13:14:55;8.95;;;1.65;;
21527;SDS011;10925;49.102;-0.370;2022-08-21T13:17:21;6.20;;;1.38;;
21527;SDS011;10925;49.102;-0.370;2022-08-21T13:22:20;7.53;;;1.75;;
21527;SDS011;10925;49.102;-0.370;2022-08-21T13:24:47;6.15;;;1.77;;
21527;SDS011;10925;49.102;-0.370;2022-08-21T13:27:20;10.38;;;1.98;;
21527;SDS011;10925;49.102;-0.370;2022-08-21T13:29:48;8.95;;;1.83;;
21527;SDS011;10925;49.102;-0.370;2022-08-21T13:32:25;6.88;;;1.80;;
21527;SDS011;10925;49.102;-0.370;2022-08-21T13:34:52;4.60;;;1.48;;
21527;SDS011;10925;49.102;-0.370;2022-08-21T13:37:18;4.78;;;1.50;;
21527;SDS011;10925;49.102;-0.370;2022-08-21T13:39:48;6.88;;;1.27;;
21527;SDS011;10925;49.102;-0.370;2022-08-21T13:42:14;6.45;;;1.60;;
21527;SDS011;10925;49.102;-0.370;2022-08-21T13:44:41;6.07;;;1.30;;
21527;SDS011;10925;49.102;-0.370;2022-08-21T13:47:07;5.55;;;1.92;;
21527;SDS011;10925;49.102;-0.370;2022-08-21T13:49:38;9.55;;;2.20;;
21527;SDS011;10925;49.102;-0.370;2022-08-21T13:52:04;5.70;;;1.85;;
21527;SDS011;10925;49.102;-0.370;2022-08-21T13:54:39;4.32;;;1.67;;
21527;SDS011;10925;49.102;-0.370;2022-08-21T13:57:15;11.57;;;2.42;;
21527;SDS011;10925;49.102;-0.370;2022-08-21T13:59:43;11.65;;;2.30;;
21527;SDS011;10925;49.102;-0.370;2022-08-21T14:05:19;10.32;;;2.15;;
21527;SDS011;10925;49.102;-0.370;2022-08-21T14:07:26;12.18;;;2.75;;
21527;SDS011;10925;49.102;-0.370;2022-08-21T14:09:52;13.50;;;2.25;;
21527;SDS011;10925;49.102;-0.370;2022-08-21T14:12:24;11.80;;;2.28;;
21527;SDS011;10925;49.102;-0.370;2022-08-21T14:14:50;13.57;;;2.60;;
21527;SDS011;10925;49.102;-0.370;2022-08-21T14:20:13;11.10;;;2.42;;
21527;SDS011;10925;49.102;-0.370;2022-08-21T14:22:50;13.15;;;3.03;;
21527;SDS011;10925;49.102;-0.370;2022-08-21T14:27:54;11.80;;;2.80;;
21527;SDS011;10925;49.102;-0.370;2022-08-21T14:30:25;14.40;;;2.80;;
21527;SDS011;10925;49.102;-0.370;2022-08-21T14:32:52;12.82;;;2.95;;
21527;SDS011;10925;49.102;-0.370;2022-08-21T14:35:18;13.93;;;2.88;;
21527;SDS011;10925;49.102;-0.370;2022-08-21T14:37:46;12.05;;;2.90;;
21527;SDS011;10925;49.102;-0.370;2022-08-21T14:40:12;16.02;;;2.78;;
21527;SDS011;10925;49.102;-0.370;2022-08-21T14:42:39;9.88;;;2.78;;
21527;SDS011;10925;49.102;-0.370;2022-08-21T14:45:08;12.70;;;2.58;;
21527;SDS011;10925;49.102;-0.370;2022-08-21T14:47:35;16.10;;;2.50;;
21527;SDS011;10925;49.102;-0.370;2022-08-21T14:50:02;12.15;;;2.67;;
21527;SDS011;10925;49.102;-0.370;2022-08-21T14:52:28;15.40;;;2.53;;
21527;SDS011;10925;49.102;-0.370;2022-08-21T14:54:55;11.45;;;3.00;;
21527;SDS011;10925;49.102;-0.370;2022-08-21T14:57:20;14.63;;;2.30;;
21527;SDS011;10925;49.102;-0.370;2022-08-21T14:59:47;11.93;;;2.28;;
21527;SDS011;10925;49.102;-0.370;2022-08-21T15:02:14;11.13;;;3.00;;
21527;SDS011;10925;49.102;-0.370;2022-08-21T15:04:40;11.25;;;2.22;;
21527;SDS011;10925;49.102;-0.370;2022-08-21T15:07:06;12.93;;;2.65;;
21527;SDS011;10925;49.102;-0.370;2022-08-21T15:09:32;18.58;;;2.88;;
21527;SDS011;10925;49.102;-0.370;2022-08-21T15:11:59;10.80;;;2.38;;
21527;SDS011;10925;49.102;-0.370;2022-08-21T15:14:27;9.50;;;2.13;;
21527;SDS011;10925;49.102;-0.370;2022-08-21T15:16:55;13.15;;;2.30;;
21527;SDS011;10925;49.102;-0.370;2022-08-21T15:19:20;10.55;;;2.35;;
21527;SDS011;10925;49.102;-0.370;2022-08-21T15:21:46;9.05;;;2.25;;
21527;SDS011;10925;49.102;-0.370;2022-08-21T15:24:13;11.35;;;2.40;;
21527;SDS011;10925;49.102;-0.370;2022-08-21T15:26:38;10.13;;;2.63;;
21527;SDS011;10925;49.102;-0.370;2022-08-21T15:29:04;10.85;;;2.58;;
21527;SDS011;10925;49.102;-0.370;2022-08-21T15:31:32;14.70;;;2.65;;
21527;SDS011;10925;49.102;-0.370;2022-08-21T15:33:59;11.90;;;2.58;;
21527;SDS011;10925;49.102;-0.370;2022-08-21T15:36:25;10.00;;;2.08;;
21527;SDS011;10925;49.102;-0.370;2022-08-21T15:38:51;13.05;;;2.63;;
21527;SDS011;10925;49.102;-0.370;2022-08-21T15:41:16;12.52;;;2.92;;
21527;SDS011;10925;49.102;-0.370;2022-08-21T15:43:45;15.05;;;2.60;;
21527;SDS011;10925;49.102;-0.370;2022-08-21T15:46:13;13.15;;;2.60;;
21527;SDS011;10925;49.102;-0.370;2022-08-21T15:48:42;13.85;;;2.83;;
21527;SDS011;10925;49.102;-0.370;2022-08-21T15:51:10;8.95;;;2.25;;
21527;SDS011;10925;49.102;-0.370;2022-08-21T15:53:36;11.68;;;2.47;;
21527;SDS011;10925;49.102;-0.370;2022-08-21T15:56:04;12.75;;;2.40;;
21527;SDS011;10925;49.102;-0.370;2022-08-21T15:58:30;11.13;;;2.05;;
21527;SDS011;10925;49.102;-0.370;2022-08-21T16:01:00;9.63;;;2.45;;